Airport View

Enter AWOS ICAO identifier for current METAR.

ex. KFNL

PFEL 251356Z AUTO 35006KT 10SM CLR M03/M06 A2958 RMK AO2 SLP021 T10331056 FZRANO

25 Sep 2020 14:28

Frequency: 121.425

Phone: 907-890-2014

Other Area AWOS: PAGL - PAWM - PFSH - PAKK

TAF PAUN 251133Z 2512/2612 00000KT P6SM SKC FM252100 34015KT P6SM SKC